sensor_id;sensor_type;location;lat;lon;timestamp;P1;durP1;ratioP1;P2;durP2;ratioP2
12072;SDS011;6098;49.004;8.372;2023-03-24T00:01:15;4.38;;;3.27;;
12072;SDS011;6098;49.004;8.372;2023-03-24T00:16:08;3.94;;;3.17;;
12072;SDS011;6098;49.004;8.372;2023-03-24T00:45:56;3.63;;;2.88;;
12072;SDS011;6098;49.004;8.372;2023-03-24T01:00:41;3.29;;;2.42;;
12072;SDS011;6098;49.004;8.372;2023-03-24T01:15:33;5.13;;;2.90;;
12072;SDS011;6098;49.004;8.372;2023-03-24T01:30:26;4.26;;;2.71;;
12072;SDS011;6098;49.004;8.372;2023-03-24T02:00:39;3.24;;;2.77;;
12072;SDS011;6098;49.004;8.372;2023-03-24T02:15:30;3.98;;;2.98;;
12072;SDS011;6098;49.004;8.372;2023-03-24T03:15:45;4.97;;;2.87;;
12072;SDS011;6098;49.004;8.372;2023-03-24T03:30:38;4.29;;;3.11;;
12072;SDS011;6098;49.004;8.372;2023-03-24T03:45:28;5.18;;;3.80;;
12072;SDS011;6098;49.004;8.372;2023-03-24T04:00:20;3.44;;;2.99;;
12072;SDS011;6098;49.004;8.372;2023-03-24T04:30:37;5.19;;;3.81;;
12072;SDS011;6098;49.004;8.372;2023-03-24T04:45:38;7.47;;;5.37;;
12072;SDS011;6098;49.004;8.372;2023-03-24T05:00:29;7.60;;;6.02;;
12072;SDS011;6098;49.004;8.372;2023-03-24T05:15:19;7.49;;;6.46;;
12072;SDS011;6098;49.004;8.372;2023-03-24T05:30:11;8.54;;;5.66;;
12072;SDS011;6098;49.004;8.372;2023-03-24T05:45:02;6.41;;;5.30;;
12072;SDS011;6098;49.004;8.372;2023-03-24T05:59:54;7.32;;;5.81;;
12072;SDS011;6098;49.004;8.372;2023-03-24T06:14:45;6.91;;;5.62;;
12072;SDS011;6098;49.004;8.372;2023-03-24T06:29:39;8.21;;;5.66;;
12072;SDS011;6098;49.004;8.372;2023-03-24T06:44:30;7.08;;;5.18;;
12072;SDS011;6098;49.004;8.372;2023-03-24T06:59:22;6.54;;;5.50;;
12072;SDS011;6098;49.004;8.372;2023-03-24T07:14:13;6.98;;;4.70;;
12072;SDS011;6098;49.004;8.372;2023-03-24T07:29:06;6.51;;;5.11;;
12072;SDS011;6098;49.004;8.372;2023-03-24T07:43:57;6.43;;;5.04;;
12072;SDS011;6098;49.004;8.372;2023-03-24T07:58:49;5.77;;;4.14;;
12072;SDS011;6098;49.004;8.372;2023-03-24T08:13:41;4.07;;;3.00;;
12072;SDS011;6098;49.004;8.372;2023-03-24T08:28:33;3.43;;;3.13;;
12072;SDS011;6098;49.004;8.372;2023-03-24T08:43:25;3.73;;;2.91;;
12072;SDS011;6098;49.004;8.372;2023-03-24T08:58:20;2.90;;;2.51;;
12072;SDS011;6098;49.004;8.372;2023-03-24T09:13:11;3.71;;;2.91;;
12072;SDS011;6098;49.004;8.372;2023-03-24T09:28:03;4.76;;;3.22;;
12072;SDS011;6098;49.004;8.372;2023-03-24T09:43:07;3.50;;;2.79;;
12072;SDS011;6098;49.004;8.372;2023-03-24T09:58:09;3.18;;;2.36;;
12072;SDS011;6098;49.004;8.372;2023-03-24T10:13:05;3.32;;;2.28;;
12072;SDS011;6098;49.004;8.372;2023-03-24T10:28:05;2.56;;;1.90;;
12072;SDS011;6098;49.004;8.372;2023-03-24T10:42:54;3.43;;;1.99;;
12072;SDS011;6098;49.004;8.372;2023-03-24T10:57:47;3.12;;;2.00;;
12072;SDS011;6098;49.004;8.372;2023-03-24T11:12:39;2.14;;;1.71;;
12072;SDS011;6098;49.004;8.372;2023-03-24T11:27:29;2.11;;;1.91;;
12072;SDS011;6098;49.004;8.372;2023-03-24T11:42:25;1.87;;;1.59;;
12072;SDS011;6098;49.004;8.372;2023-03-24T11:57:11;3.09;;;1.20;;
12072;SDS011;6098;49.004;8.372;2023-03-24T12:12:20;6.66;;;1.40;;
12072;SDS011;6098;49.004;8.372;2023-03-24T12:42:34;3.13;;;1.18;;
12072;SDS011;6098;49.004;8.372;2023-03-24T12:57:31;3.68;;;1.23;;
12072;SDS011;6098;49.004;8.372;2023-03-24T13:12:44;2.77;;;1.50;;
12072;SDS011;6098;49.004;8.372;2023-03-24T13:27:40;3.84;;;1.37;;
12072;SDS011;6098;49.004;8.372;2023-03-24T13:42:33;3.90;;;1.69;;
12072;SDS011;6098;49.004;8.372;2023-03-24T13:57:24;5.11;;;1.70;;
12072;SDS011;6098;49.004;8.372;2023-03-24T14:12:16;4.16;;;1.62;;
12072;SDS011;6098;49.004;8.372;2023-03-24T14:27:20;2.51;;;1.40;;
12072;SDS011;6098;49.004;8.372;2023-03-24T14:42:26;2.73;;;1.32;;
12072;SDS011;6098;49.004;8.372;2023-03-24T14:57:37;3.58;;;1.30;;
12072;SDS011;6098;49.004;8.372;2023-03-24T15:12:29;1.31;;;1.00;;
12072;SDS011;6098;49.004;8.372;2023-03-24T15:27:21;1.96;;;1.00;;
12072;SDS011;6098;49.004;8.372;2023-03-24T15:42:14;2.47;;;1.29;;
12072;SDS011;6098;49.004;8.372;2023-03-24T15:57:15;1.84;;;1.13;;
12072;SDS011;6098;49.004;8.372;2023-03-24T16:12:12;1.56;;;1.10;;
12072;SDS011;6098;49.004;8.372;2023-03-24T16:27:04;1.90;;;1.01;;
12072;SDS011;6098;49.004;8.372;2023-03-24T16:41:56;3.68;;;1.34;;
12072;SDS011;6098;49.004;8.372;2023-03-24T16:56:47;2.13;;;1.46;;
12072;SDS011;6098;49.004;8.372;2023-03-24T17:11:39;1.20;;;1.10;;
12072;SDS011;6098;49.004;8.372;2023-03-24T17:26:29;1.38;;;1.07;;
12072;SDS011;6098;49.004;8.372;2023-03-24T17:41:20;1.80;;;1.39;;
12072;SDS011;6098;49.004;8.372;2023-03-24T17:56:11;2.33;;;1.30;;
12072;SDS011;6098;49.004;8.372;2023-03-24T18:11:06;3.12;;;1.48;;
12072;SDS011;6098;49.004;8.372;2023-03-24T18:25:59;1.97;;;1.44;;
12072;SDS011;6098;49.004;8.372;2023-03-24T18:40:59;2.97;;;1.51;;
12072;SDS011;6098;49.004;8.372;2023-03-24T18:55:54;1.94;;;1.54;;
12072;SDS011;6098;49.004;8.372;2023-03-24T19:10:45;2.61;;;1.60;;
12072;SDS011;6098;49.004;8.372;2023-03-24T19:25:36;2.47;;;1.60;;
12072;SDS011;6098;49.004;8.372;2023-03-24T19:40:27;3.90;;;1.91;;
12072;SDS011;6098;49.004;8.372;2023-03-24T19:55:18;3.41;;;1.42;;
12072;SDS011;6098;49.004;8.372;2023-03-24T20:10:09;2.96;;;1.30;;
12072;SDS011;6098;49.004;8.372;2023-03-24T20:25:00;1.50;;;1.34;;
12072;SDS011;6098;49.004;8.372;2023-03-24T20:39:51;1.72;;;1.30;;
12072;SDS011;6098;49.004;8.372;2023-03-24T20:54:42;3.51;;;1.66;;
12072;SDS011;6098;49.004;8.372;2023-03-24T21:09:32;2.09;;;1.36;;
12072;SDS011;6098;49.004;8.372;2023-03-24T21:24:24;2.44;;;1.31;;
12072;SDS011;6098;49.004;8.372;2023-03-24T21:39:15;3.01;;;1.40;;
12072;SDS011;6098;49.004;8.372;2023-03-24T21:54:07;2.50;;;1.50;;
12072;SDS011;6098;49.004;8.372;2023-03-24T22:08:58;2.19;;;1.40;;
12072;SDS011;6098;49.004;8.372;2023-03-24T22:23:50;1.82;;;1.39;;
12072;SDS011;6098;49.004;8.372;2023-03-24T22:38:38;3.18;;;1.23;;
12072;SDS011;6098;49.004;8.372;2023-03-24T22:53:28;1.69;;;1.24;;
12072;SDS011;6098;49.004;8.372;2023-03-24T23:08:18;3.86;;;0.80;;
12072;SDS011;6098;49.004;8.372;2023-03-24T23:23:09;1.74;;;0.70;;
12072;SDS011;6098;49.004;8.372;2023-03-24T23:38:00;1.10;;;0.59;;
12072;SDS011;6098;49.004;8.372;2023-03-24T23:52:51;3.29;;;0.84;;
